sensor_id;sensor_type;location;lat;lon;timestamp;P1;durP1;ratioP1;P2;durP2;ratioP2
74660;SDS011;63191;39.566;2.654;2023-01-28T00:00:57;6.00;;;1.80;;
74660;SDS011;63191;39.566;2.654;2023-01-28T00:03:29;6.20;;;1.50;;
74660;SDS011;63191;39.566;2.654;2023-01-28T00:06:01;7.90;;;1.80;;
74660;SDS011;63191;39.566;2.654;2023-01-28T00:08:31;4.90;;;1.00;;
74660;SDS011;63191;39.566;2.654;2023-01-28T00:11:02;5.00;;;1.10;;
74660;SDS011;63191;39.566;2.654;2023-01-28T00:13:30;4.30;;;0.90;;
74660;SDS011;63191;39.566;2.654;2023-01-28T00:16:06;5.40;;;1.00;;
74660;SDS011;63191;39.566;2.654;2023-01-28T00:18:33;5.80;;;0.90;;
74660;SDS011;63191;39.566;2.654;2023-01-28T00:21:02;5.30;;;1.30;;
74660;SDS011;63191;39.566;2.654;2023-01-28T00:23:30;4.90;;;1.50;;
74660;SDS011;63191;39.566;2.654;2023-01-28T00:26:03;7.20;;;1.60;;
74660;SDS011;63191;39.566;2.654;2023-01-28T00:28:33;6.00;;;1.00;;
74660;SDS011;63191;39.566;2.654;2023-01-28T00:31:05;6.40;;;0.80;;
74660;SDS011;63191;39.566;2.654;2023-01-28T00:33:34;5.70;;;0.80;;
74660;SDS011;63191;39.566;2.654;2023-01-28T00:36:01;4.50;;;0.80;;
74660;SDS011;63191;39.566;2.654;2023-01-28T00:38:28;5.40;;;1.00;;
74660;SDS011;63191;39.566;2.654;2023-01-28T00:40:55;4.50;;;0.70;;
74660;SDS011;63191;39.566;2.654;2023-01-28T00:43:21;4.30;;;0.60;;
74660;SDS011;63191;39.566;2.654;2023-01-28T00:45:46;3.90;;;0.60;;
74660;SDS011;63191;39.566;2.654;2023-01-28T00:48:13;2.60;;;0.50;;
74660;SDS011;63191;39.566;2.654;2023-01-28T00:50:39;4.90;;;0.60;;
74660;SDS011;63191;39.566;2.654;2023-01-28T00:53:05;3.70;;;0.70;;
74660;SDS011;63191;39.566;2.654;2023-01-28T00:55:31;3.20;;;0.60;;
74660;SDS011;63191;39.566;2.654;2023-01-28T00:57:57;3.90;;;0.60;;
74660;SDS011;63191;39.566;2.654;2023-01-28T01:00:22;1.80;;;0.40;;
74660;SDS011;63191;39.566;2.654;2023-01-28T01:02:51;2.60;;;0.50;;
74660;SDS011;63191;39.566;2.654;2023-01-28T01:05:17;3.50;;;0.70;;
74660;SDS011;63191;39.566;2.654;2023-01-28T01:07:43;3.50;;;0.70;;
74660;SDS011;63191;39.566;2.654;2023-01-28T01:10:17;2.60;;;0.50;;
74660;SDS011;63191;39.566;2.654;2023-01-28T01:12:48;3.20;;;0.50;;
74660;SDS011;63191;39.566;2.654;2023-01-28T01:15:15;2.90;;;0.40;;
74660;SDS011;63191;39.566;2.654;2023-01-28T01:17:45;3.90;;;0.80;;
74660;SDS011;63191;39.566;2.654;2023-01-28T01:20:21;3.40;;;0.60;;
74660;SDS011;63191;39.566;2.654;2023-01-28T01:22:48;2.60;;;0.50;;
74660;SDS011;63191;39.566;2.654;2023-01-28T01:25:15;3.70;;;0.60;;
74660;SDS011;63191;39.566;2.654;2023-01-28T01:27:42;3.40;;;0.40;;
74660;SDS011;63191;39.566;2.654;2023-01-28T01:30:10;2.10;;;0.50;;
74660;SDS011;63191;39.566;2.654;2023-01-28T01:32:37;3.50;;;0.90;;
74660;SDS011;63191;39.566;2.654;2023-01-28T01:35:04;3.30;;;0.50;;
74660;SDS011;63191;39.566;2.654;2023-01-28T01:37:33;3.20;;;0.40;;
74660;SDS011;63191;39.566;2.654;2023-01-28T01:40:00;3.10;;;0.40;;
74660;SDS011;63191;39.566;2.654;2023-01-28T01:42:32;3.60;;;0.50;;
74660;SDS011;63191;39.566;2.654;2023-01-28T01:45:12;2.90;;;0.30;;
74660;SDS011;63191;39.566;2.654;2023-01-28T01:50:35;4.50;;;0.70;;
74660;SDS011;63191;39.566;2.654;2023-01-28T01:53:08;3.00;;;0.40;;
74660;SDS011;63191;39.566;2.654;2023-01-28T01:55:38;3.30;;;0.60;;
74660;SDS011;63191;39.566;2.654;2023-01-28T01:58:11;3.30;;;0.50;;
74660;SDS011;63191;39.566;2.654;2023-01-28T02:00:40;2.20;;;0.40;;
74660;SDS011;63191;39.566;2.654;2023-01-28T02:03:08;2.30;;;0.30;;
74660;SDS011;63191;39.566;2.654;2023-01-28T02:05:35;2.20;;;0.40;;
74660;SDS011;63191;39.566;2.654;2023-01-28T02:08:03;2.10;;;0.30;;
74660;SDS011;63191;39.566;2.654;2023-01-28T02:13:25;3.90;;;0.40;;
74660;SDS011;63191;39.566;2.654;2023-01-28T02:15:53;3.40;;;0.60;;
74660;SDS011;63191;39.566;2.654;2023-01-28T02:18:20;4.40;;;0.40;;
74660;SDS011;63191;39.566;2.654;2023-01-28T02:21:05;5.80;;;0.70;;
74660;SDS011;63191;39.566;2.654;2023-01-28T02:26:59;2.60;;;0.50;;
74660;SDS011;63191;39.566;2.654;2023-01-28T02:29:53;3.90;;;0.60;;
74660;SDS011;63191;39.566;2.654;2023-01-28T02:35:46;3.60;;;0.40;;
74660;SDS011;63191;39.566;2.654;2023-01-28T02:38:19;2.70;;;0.30;;
74660;SDS011;63191;39.566;2.654;2023-01-28T02:40:51;1.60;;;0.20;;
74660;SDS011;63191;39.566;2.654;2023-01-28T02:43:41;1.90;;;0.30;;
74660;SDS011;63191;39.566;2.654;2023-01-28T02:49:22;2.60;;;0.40;;
74660;SDS011;63191;39.566;2.654;2023-01-28T03:01:00;2.20;;;0.30;;
74660;SDS011;63191;39.566;2.654;2023-01-28T03:06:47;3.90;;;0.50;;
74660;SDS011;63191;39.566;2.654;2023-01-28T03:09:17;4.50;;;0.40;;
74660;SDS011;63191;39.566;2.654;2023-01-28T03:11:54;2.20;;;0.40;;
74660;SDS011;63191;39.566;2.654;2023-01-28T03:14:42;2.60;;;0.40;;
74660;SDS011;63191;39.566;2.654;2023-01-28T03:17:50;2.90;;;0.40;;
74660;SDS011;63191;39.566;2.654;2023-01-28T03:20:50;2.90;;;0.30;;
74660;SDS011;63191;39.566;2.654;2023-01-28T03:23:57;2.80;;;0.30;;
74660;SDS011;63191;39.566;2.654;2023-01-28T03:27:10;2.60;;;0.40;;
74660;SDS011;63191;39.566;2.654;2023-01-28T03:29:59;3.00;;;0.30;;
74660;SDS011;63191;39.566;2.654;2023-01-28T03:32:47;2.10;;;0.30;;
74660;SDS011;63191;39.566;2.654;2023-01-28T03:35:36;2.50;;;0.40;;
74660;SDS011;63191;39.566;2.654;2023-01-28T03:38:23;3.80;;;0.50;;
74660;SDS011;63191;39.566;2.654;2023-01-28T03:41:01;2.90;;;0.50;;
74660;SDS011;63191;39.566;2.654;2023-01-28T03:43:28;3.60;;;0.50;;
74660;SDS011;63191;39.566;2.654;2023-01-28T03:45:55;3.50;;;0.50;;
74660;SDS011;63191;39.566;2.654;2023-01-28T03:48:23;4.40;;;0.90;;
74660;SDS011;63191;39.566;2.654;2023-01-28T03:50:51;3.70;;;0.60;;
74660;SDS011;63191;39.566;2.654;2023-01-28T03:53:20;5.30;;;0.80;;
74660;SDS011;63191;39.566;2.654;2023-01-28T03:55:48;4.50;;;0.70;;
74660;SDS011;63191;39.566;2.654;2023-01-28T03:58:16;7.80;;;0.70;;
74660;SDS011;63191;39.566;2.654;2023-01-28T04:00:42;2.20;;;0.40;;
74660;SDS011;63191;39.566;2.654;2023-01-28T04:03:13;4.90;;;0.70;;
74660;SDS011;63191;39.566;2.654;2023-01-28T04:05:45;3.30;;;0.60;;
74660;SDS011;63191;39.566;2.654;2023-01-28T04:08:32;3.70;;;0.40;;
74660;SDS011;63191;39.566;2.654;2023-01-28T04:10:58;1.80;;;0.20;;
74660;SDS011;63191;39.566;2.654;2023-01-28T04:13:43;2.50;;;0.30;;
74660;SDS011;63191;39.566;2.654;2023-01-28T04:16:10;5.70;;;0.50;;
74660;SDS011;63191;39.566;2.654;2023-01-28T04:18:41;3.40;;;0.50;;
74660;SDS011;63191;39.566;2.654;2023-01-28T04:21:07;3.00;;;0.40;;
74660;SDS011;63191;39.566;2.654;2023-01-28T04:23:33;3.30;;;0.50;;
74660;SDS011;63191;39.566;2.654;2023-01-28T04:25:59;2.60;;;0.60;;
74660;SDS011;63191;39.566;2.654;2023-01-28T04:28:25;3.90;;;0.50;;
74660;SDS011;63191;39.566;2.654;2023-01-28T04:30:51;3.90;;;0.40;;
74660;SDS011;63191;39.566;2.654;2023-01-28T04:33:17;2.90;;;0.50;;
74660;SDS011;63191;39.566;2.654;2023-01-28T04:35:43;2.80;;;0.40;;
74660;SDS011;63191;39.566;2.654;2023-01-28T04:38:09;2.50;;;0.40;;
74660;SDS011;63191;39.566;2.654;2023-01-28T04:40:35;2.50;;;0.30;;
74660;SDS011;63191;39.566;2.654;2023-01-28T04:43:01;3.30;;;0.60;;
74660;SDS011;63191;39.566;2.654;2023-01-28T04:45:26;2.00;;;0.50;;
74660;SDS011;63191;39.566;2.654;2023-01-28T04:47:52;2.90;;;0.50;;
74660;SDS011;63191;39.566;2.654;2023-01-28T04:50:18;2.80;;;0.40;;
74660;SDS011;63191;39.566;2.654;2023-01-28T04:52:44;2.70;;;0.50;;
74660;SDS011;63191;39.566;2.654;2023-01-28T04:55:10;3.00;;;0.70;;
74660;SDS011;63191;39.566;2.654;2023-01-28T04:57:36;4.30;;;0.60;;
74660;SDS011;63191;39.566;2.654;2023-01-28T05:00:03;3.30;;;0.70;;
74660;SDS011;63191;39.566;2.654;2023-01-28T05:02:30;5.60;;;0.80;;
74660;SDS011;63191;39.566;2.654;2023-01-28T05:04:55;2.60;;;0.40;;
74660;SDS011;63191;39.566;2.654;2023-01-28T05:07:24;4.30;;;0.60;;
74660;SDS011;63191;39.566;2.654;2023-01-28T05:09:49;2.10;;;0.50;;
74660;SDS011;63191;39.566;2.654;2023-01-28T05:12:15;3.00;;;0.40;;
74660;SDS011;63191;39.566;2.654;2023-01-28T05:14:41;3.20;;;0.50;;
74660;SDS011;63191;39.566;2.654;2023-01-28T05:17:06;3.50;;;0.50;;
74660;SDS011;63191;39.566;2.654;2023-01-28T05:19:32;2.40;;;0.40;;
74660;SDS011;63191;39.566;2.654;2023-01-28T05:21:58;2.50;;;0.40;;
74660;SDS011;63191;39.566;2.654;2023-01-28T05:24:23;4.40;;;0.50;;
74660;SDS011;63191;39.566;2.654;2023-01-28T05:26:49;1.90;;;0.40;;
74660;SDS011;63191;39.566;2.654;2023-01-28T05:29:14;4.90;;;0.40;;
74660;SDS011;63191;39.566;2.654;2023-01-28T05:31:40;4.50;;;0.60;;
74660;SDS011;63191;39.566;2.654;2023-01-28T05:34:06;4.70;;;0.50;;
74660;SDS011;63191;39.566;2.654;2023-01-28T05:36:32;3.00;;;0.50;;
74660;SDS011;63191;39.566;2.654;2023-01-28T05:38:58;4.60;;;0.50;;
74660;SDS011;63191;39.566;2.654;2023-01-28T05:41:23;3.40;;;0.40;;
74660;SDS011;63191;39.566;2.654;2023-01-28T05:43:49;4.20;;;0.60;;
74660;SDS011;63191;39.566;2.654;2023-01-28T05:46:15;5.10;;;0.60;;
74660;SDS011;63191;39.566;2.654;2023-01-28T05:48:40;4.50;;;0.60;;
74660;SDS011;63191;39.566;2.654;2023-01-28T05:51:06;4.20;;;0.50;;
74660;SDS011;63191;39.566;2.654;2023-01-28T05:53:32;3.30;;;0.60;;
74660;SDS011;63191;39.566;2.654;2023-01-28T05:55:57;4.50;;;0.70;;
74660;SDS011;63191;39.566;2.654;2023-01-28T05:58:23;4.20;;;0.70;;
74660;SDS011;63191;39.566;2.654;2023-01-28T06:00:49;4.30;;;0.80;;
74660;SDS011;63191;39.566;2.654;2023-01-28T06:03:14;2.40;;;0.40;;
74660;SDS011;63191;39.566;2.654;2023-01-28T06:05:40;3.60;;;0.60;;
74660;SDS011;63191;39.566;2.654;2023-01-28T06:08:06;4.10;;;0.70;;
74660;SDS011;63191;39.566;2.654;2023-01-28T06:10:31;4.00;;;0.60;;
74660;SDS011;63191;39.566;2.654;2023-01-28T06:12:57;2.80;;;0.50;;
74660;SDS011;63191;39.566;2.654;2023-01-28T06:15:24;5.20;;;0.60;;
74660;SDS011;63191;39.566;2.654;2023-01-28T06:17:50;3.70;;;0.60;;
74660;SDS011;63191;39.566;2.654;2023-01-28T06:20:17;4.80;;;0.90;;
74660;SDS011;63191;39.566;2.654;2023-01-28T06:22:43;2.50;;;0.30;;
74660;SDS011;63191;39.566;2.654;2023-01-28T06:25:09;3.00;;;0.50;;
74660;SDS011;63191;39.566;2.654;2023-01-28T06:27:34;3.80;;;0.40;;
74660;SDS011;63191;39.566;2.654;2023-01-28T06:30:00;3.60;;;0.60;;
74660;SDS011;63191;39.566;2.654;2023-01-28T06:32:26;4.60;;;0.50;;
74660;SDS011;63191;39.566;2.654;2023-01-28T06:34:52;2.60;;;0.50;;
74660;SDS011;63191;39.566;2.654;2023-01-28T06:37:18;4.10;;;0.60;;
74660;SDS011;63191;39.566;2.654;2023-01-28T06:39:44;2.80;;;0.60;;
74660;SDS011;63191;39.566;2.654;2023-01-28T06:42:10;3.20;;;0.40;;
74660;SDS011;63191;39.566;2.654;2023-01-28T06:44:35;2.60;;;0.50;;
74660;SDS011;63191;39.566;2.654;2023-01-28T06:47:01;3.20;;;0.60;;
74660;SDS011;63191;39.566;2.654;2023-01-28T06:49:27;4.20;;;0.80;;
74660;SDS011;63191;39.566;2.654;2023-01-28T06:51:53;2.40;;;0.50;;
74660;SDS011;63191;39.566;2.654;2023-01-28T06:54:19;6.10;;;0.80;;
74660;SDS011;63191;39.566;2.654;2023-01-28T06:56:45;4.00;;;0.60;;
74660;SDS011;63191;39.566;2.654;2023-01-28T06:59:10;4.40;;;0.80;;
74660;SDS011;63191;39.566;2.654;2023-01-28T07:01:36;4.00;;;0.80;;
74660;SDS011;63191;39.566;2.654;2023-01-28T07:04:02;3.10;;;0.70;;
74660;SDS011;63191;39.566;2.654;2023-01-28T07:06:30;3.40;;;0.60;;
74660;SDS011;63191;39.566;2.654;2023-01-28T07:08:56;3.60;;;0.70;;
74660;SDS011;63191;39.566;2.654;2023-01-28T07:11:22;4.00;;;0.60;;
74660;SDS011;63191;39.566;2.654;2023-01-28T07:13:48;4.50;;;0.70;;
74660;SDS011;63191;39.566;2.654;2023-01-28T07:16:13;3.40;;;0.70;;
74660;SDS011;63191;39.566;2.654;2023-01-28T07:18:39;3.10;;;0.50;;
74660;SDS011;63191;39.566;2.654;2023-01-28T07:21:05;4.30;;;0.60;;
74660;SDS011;63191;39.566;2.654;2023-01-28T07:23:30;3.50;;;0.70;;
74660;SDS011;63191;39.566;2.654;2023-01-28T07:26:02;3.00;;;0.50;;
74660;SDS011;63191;39.566;2.654;2023-01-28T07:28:28;2.70;;;0.60;;
74660;SDS011;63191;39.566;2.654;2023-01-28T07:30:54;4.00;;;0.90;;
74660;SDS011;63191;39.566;2.654;2023-01-28T07:33:20;3.50;;;0.60;;
74660;SDS011;63191;39.566;2.654;2023-01-28T07:35:47;4.10;;;0.80;;
74660;SDS011;63191;39.566;2.654;2023-01-28T07:38:13;3.00;;;0.70;;
74660;SDS011;63191;39.566;2.654;2023-01-28T07:40:39;3.20;;;0.50;;
74660;SDS011;63191;39.566;2.654;2023-01-28T07:43:07;5.20;;;0.80;;
74660;SDS011;63191;39.566;2.654;2023-01-28T07:45:35;5.00;;;0.70;;
74660;SDS011;63191;39.566;2.654;2023-01-28T07:48:04;3.50;;;0.70;;
74660;SDS011;63191;39.566;2.654;2023-01-28T07:50:34;2.70;;;0.60;;
74660;SDS011;63191;39.566;2.654;2023-01-28T07:53:06;3.40;;;0.70;;
74660;SDS011;63191;39.566;2.654;2023-01-28T07:55:33;4.50;;;0.80;;
74660;SDS011;63191;39.566;2.654;2023-01-28T07:58:06;2.90;;;0.40;;
74660;SDS011;63191;39.566;2.654;2023-01-28T08:00:38;3.10;;;0.70;;
74660;SDS011;63191;39.566;2.654;2023-01-28T08:03:14;1.00;;;0.20;;
74660;SDS011;63191;39.566;2.654;2023-01-28T08:05:46;3.80;;;0.60;;
74660;SDS011;63191;39.566;2.654;2023-01-28T08:08:13;3.10;;;0.60;;
74660;SDS011;63191;39.566;2.654;2023-01-28T08:10:40;4.40;;;0.90;;
74660;SDS011;63191;39.566;2.654;2023-01-28T08:13:06;3.40;;;0.40;;
74660;SDS011;63191;39.566;2.654;2023-01-28T08:15:32;4.00;;;0.70;;
74660;SDS011;63191;39.566;2.654;2023-01-28T08:17:59;3.60;;;0.80;;
74660;SDS011;63191;39.566;2.654;2023-01-28T08:20:26;5.10;;;0.90;;
74660;SDS011;63191;39.566;2.654;2023-01-28T08:23:03;4.10;;;0.90;;
74660;SDS011;63191;39.566;2.654;2023-01-28T08:25:33;2.90;;;0.50;;
74660;SDS011;63191;39.566;2.654;2023-01-28T08:27:59;4.70;;;0.90;;
74660;SDS011;63191;39.566;2.654;2023-01-28T08:30:25;2.40;;;0.60;;
74660;SDS011;63191;39.566;2.654;2023-01-28T08:32:55;4.30;;;0.80;;
74660;SDS011;63191;39.566;2.654;2023-01-28T08:35:23;4.10;;;1.10;;
74660;SDS011;63191;39.566;2.654;2023-01-28T08:37:49;4.70;;;1.50;;
74660;SDS011;63191;39.566;2.654;2023-01-28T08:40:15;3.10;;;0.50;;
74660;SDS011;63191;39.566;2.654;2023-01-28T08:42:49;6.30;;;0.80;;
74660;SDS011;63191;39.566;2.654;2023-01-28T08:45:17;6.20;;;1.00;;
74660;SDS011;63191;39.566;2.654;2023-01-28T08:50:18;7.60;;;1.30;;
74660;SDS011;63191;39.566;2.654;2023-01-28T08:52:45;2.20;;;0.50;;
74660;SDS011;63191;39.566;2.654;2023-01-28T08:55:12;5.90;;;0.70;;
74660;SDS011;63191;39.566;2.654;2023-01-28T08:57:38;3.00;;;0.70;;
74660;SDS011;63191;39.566;2.654;2023-01-28T09:00:05;4.10;;;0.80;;
74660;SDS011;63191;39.566;2.654;2023-01-28T09:02:32;3.20;;;0.90;;
74660;SDS011;63191;39.566;2.654;2023-01-28T09:04:58;6.30;;;1.60;;
74660;SDS011;63191;39.566;2.654;2023-01-28T09:07:24;4.00;;;1.00;;
74660;SDS011;63191;39.566;2.654;2023-01-28T09:09:50;4.10;;;1.10;;
74660;SDS011;63191;39.566;2.654;2023-01-28T09:12:15;4.80;;;1.70;;
74660;SDS011;63191;39.566;2.654;2023-01-28T09:14:41;4.40;;;0.70;;
74660;SDS011;63191;39.566;2.654;2023-01-28T09:17:07;2.30;;;0.40;;
74660;SDS011;63191;39.566;2.654;2023-01-28T09:19:33;4.40;;;0.60;;
74660;SDS011;63191;39.566;2.654;2023-01-28T09:21:58;3.30;;;0.50;;
74660;SDS011;63191;39.566;2.654;2023-01-28T09:24:24;1.80;;;0.40;;
74660;SDS011;63191;39.566;2.654;2023-01-28T09:26:53;2.90;;;0.60;;
74660;SDS011;63191;39.566;2.654;2023-01-28T09:29:19;3.80;;;0.70;;
74660;SDS011;63191;39.566;2.654;2023-01-28T09:31:44;2.00;;;0.50;;
74660;SDS011;63191;39.566;2.654;2023-01-28T09:34:14;3.60;;;0.50;;
74660;SDS011;63191;39.566;2.654;2023-01-28T09:36:39;2.60;;;0.40;;
74660;SDS011;63191;39.566;2.654;2023-01-28T09:39:05;1.80;;;0.50;;
74660;SDS011;63191;39.566;2.654;2023-01-28T09:47:43;5.90;;;0.80;;
74660;SDS011;63191;39.566;2.654;2023-01-28T09:50:34;4.00;;;0.70;;
74660;SDS011;63191;39.566;2.654;2023-01-28T09:53:18;3.40;;;0.70;;
74660;SDS011;63191;39.566;2.654;2023-01-28T09:55:53;1.80;;;0.40;;
74660;SDS011;63191;39.566;2.654;2023-01-28T09:58:21;4.00;;;0.70;;
74660;SDS011;63191;39.566;2.654;2023-01-28T10:01:04;5.30;;;1.10;;
74660;SDS011;63191;39.566;2.654;2023-01-28T10:10:08;4.00;;;0.60;;
74660;SDS011;63191;39.566;2.654;2023-01-28T10:18:54;2.20;;;0.50;;
74660;SDS011;63191;39.566;2.654;2023-01-28T10:21:40;4.30;;;0.70;;
74660;SDS011;63191;39.566;2.654;2023-01-28T10:26:45;4.90;;;1.00;;
74660;SDS011;63191;39.566;2.654;2023-01-28T10:29:14;6.00;;;1.20;;
74660;SDS011;63191;39.566;2.654;2023-01-28T10:31:51;4.20;;;1.20;;
74660;SDS011;63191;39.566;2.654;2023-01-28T10:34:19;10.60;;;3.40;;
74660;SDS011;63191;39.566;2.654;2023-01-28T10:36:46;20.50;;;8.70;;
74660;SDS011;63191;39.566;2.654;2023-01-28T10:39:17;9.00;;;2.10;;
74660;SDS011;63191;39.566;2.654;2023-01-28T10:41:45;4.90;;;0.90;;
74660;SDS011;63191;39.566;2.654;2023-01-28T10:44:26;5.40;;;1.00;;
74660;SDS011;63191;39.566;2.654;2023-01-28T10:46:58;3.80;;;0.60;;
74660;SDS011;63191;39.566;2.654;2023-01-28T10:49:28;2.30;;;0.50;;
74660;SDS011;63191;39.566;2.654;2023-01-28T10:51:55;3.90;;;0.60;;
74660;SDS011;63191;39.566;2.654;2023-01-28T10:54:26;2.10;;;0.40;;
74660;SDS011;63191;39.566;2.654;2023-01-28T10:57:04;3.60;;;0.60;;
74660;SDS011;63191;39.566;2.654;2023-01-28T10:59:36;3.50;;;0.70;;
74660;SDS011;63191;39.566;2.654;2023-01-28T11:05:21;4.10;;;0.90;;
74660;SDS011;63191;39.566;2.654;2023-01-28T11:07:47;5.70;;;1.00;;
74660;SDS011;63191;39.566;2.654;2023-01-28T11:10:32;3.20;;;0.50;;
74660;SDS011;63191;39.566;2.654;2023-01-28T11:13:04;6.90;;;1.70;;
74660;SDS011;63191;39.566;2.654;2023-01-28T11:15:31;5.60;;;1.60;;
74660;SDS011;63191;39.566;2.654;2023-01-28T11:18:01;5.70;;;1.40;;
74660;SDS011;63191;39.566;2.654;2023-01-28T11:20:36;4.50;;;1.10;;
74660;SDS011;63191;39.566;2.654;2023-01-28T11:23:03;4.30;;;1.10;;
74660;SDS011;63191;39.566;2.654;2023-01-28T11:25:34;4.90;;;1.10;;
74660;SDS011;63191;39.566;2.654;2023-01-28T11:28:13;4.50;;;1.10;;
74660;SDS011;63191;39.566;2.654;2023-01-28T11:30:42;6.70;;;2.00;;
74660;SDS011;63191;39.566;2.654;2023-01-28T11:33:26;6.50;;;1.40;;
74660;SDS011;63191;39.566;2.654;2023-01-28T11:36:03;5.90;;;1.80;;
74660;SDS011;63191;39.566;2.654;2023-01-28T11:38:29;5.30;;;1.50;;
74660;SDS011;63191;39.566;2.654;2023-01-28T11:40:57;4.80;;;1.40;;
74660;SDS011;63191;39.566;2.654;2023-01-28T11:43:27;6.30;;;1.50;;
74660;SDS011;63191;39.566;2.654;2023-01-28T11:49:21;5.70;;;1.70;;
74660;SDS011;63191;39.566;2.654;2023-01-28T11:58:38;5.40;;;1.50;;
74660;SDS011;63191;39.566;2.654;2023-01-28T12:01:23;5.60;;;1.70;;
74660;SDS011;63191;39.566;2.654;2023-01-28T12:10:39;6.20;;;2.20;;
74660;SDS011;63191;39.566;2.654;2023-01-28T12:16:31;6.60;;;2.20;;
74660;SDS011;63191;39.566;2.654;2023-01-28T12:21:59;7.10;;;2.00;;
74660;SDS011;63191;39.566;2.654;2023-01-28T12:33:46;7.50;;;1.80;;
74660;SDS011;63191;39.566;2.654;2023-01-28T12:36:30;7.90;;;1.90;;
74660;SDS011;63191;39.566;2.654;2023-01-28T12:42:59;8.00;;;2.10;;
74660;SDS011;63191;39.566;2.654;2023-01-28T12:45:14;10.00;;;3.30;;
74660;SDS011;63191;39.566;2.654;2023-01-28T12:47:46;6.40;;;1.60;;
74660;SDS011;63191;39.566;2.654;2023-01-28T12:50:38;6.60;;;1.50;;
74660;SDS011;63191;39.566;2.654;2023-01-28T12:53:24;6.30;;;1.50;;
74660;SDS011;63191;39.566;2.654;2023-01-28T12:56:32;5.10;;;1.00;;
74660;SDS011;63191;39.566;2.654;2023-01-28T12:59:10;3.90;;;0.80;;
74660;SDS011;63191;39.566;2.654;2023-01-28T13:02:03;4.40;;;0.70;;
74660;SDS011;63191;39.566;2.654;2023-01-28T13:04:46;5.50;;;1.30;;
74660;SDS011;63191;39.566;2.654;2023-01-28T13:07:38;4.80;;;1.00;;
74660;SDS011;63191;39.566;2.654;2023-01-28T13:13:28;4.10;;;1.20;;
74660;SDS011;63191;39.566;2.654;2023-01-28T13:15:54;5.70;;;1.00;;
74660;SDS011;63191;39.566;2.654;2023-01-28T13:18:32;7.00;;;1.10;;
74660;SDS011;63191;39.566;2.654;2023-01-28T13:24:01;7.20;;;1.40;;
74660;SDS011;63191;39.566;2.654;2023-01-28T13:26:49;5.00;;;1.10;;
74660;SDS011;63191;39.566;2.654;2023-01-28T13:31:52;4.10;;;0.90;;
74660;SDS011;63191;39.566;2.654;2023-01-28T13:34:34;6.10;;;1.40;;
74660;SDS011;63191;39.566;2.654;2023-01-28T13:37:33;5.70;;;1.60;;
74660;SDS011;63191;39.566;2.654;2023-01-28T13:42:40;5.90;;;1.10;;
74660;SDS011;63191;39.566;2.654;2023-01-28T13:47:45;5.60;;;1.00;;
74660;SDS011;63191;39.566;2.654;2023-01-28T13:50:15;3.60;;;0.80;;
74660;SDS011;63191;39.566;2.654;2023-01-28T13:55:23;8.00;;;1.20;;
74660;SDS011;63191;39.566;2.654;2023-01-28T14:20:00;6.40;;;1.50;;
74660;SDS011;63191;39.566;2.654;2023-01-28T14:22:26;5.00;;;1.20;;
74660;SDS011;63191;39.566;2.654;2023-01-28T14:24:51;6.10;;;1.50;;
74660;SDS011;63191;39.566;2.654;2023-01-28T14:27:25;8.10;;;1.80;;
74660;SDS011;63191;39.566;2.654;2023-01-28T14:32:56;5.90;;;1.60;;
74660;SDS011;63191;39.566;2.654;2023-01-28T14:35:33;7.70;;;1.70;;
74660;SDS011;63191;39.566;2.654;2023-01-28T14:38:06;7.60;;;1.90;;
74660;SDS011;63191;39.566;2.654;2023-01-28T14:40:37;5.90;;;1.80;;
74660;SDS011;63191;39.566;2.654;2023-01-28T14:43:14;6.00;;;2.00;;
74660;SDS011;63191;39.566;2.654;2023-01-28T14:48:46;4.50;;;1.10;;
74660;SDS011;63191;39.566;2.654;2023-01-28T14:51:36;5.70;;;1.00;;
74660;SDS011;63191;39.566;2.654;2023-01-28T15:00:27;7.30;;;1.80;;
74660;SDS011;63191;39.566;2.654;2023-01-28T15:02:55;6.70;;;1.50;;
74660;SDS011;63191;39.566;2.654;2023-01-28T15:05:23;5.90;;;1.60;;
74660;SDS011;63191;39.566;2.654;2023-01-28T15:07:51;8.30;;;1.90;;
74660;SDS011;63191;39.566;2.654;2023-01-28T15:10:43;4.80;;;1.10;;
74660;SDS011;63191;39.566;2.654;2023-01-28T15:13:14;4.90;;;1.00;;
74660;SDS011;63191;39.566;2.654;2023-01-28T15:15:48;5.10;;;1.40;;
74660;SDS011;63191;39.566;2.654;2023-01-28T15:18:20;5.00;;;1.10;;
74660;SDS011;63191;39.566;2.654;2023-01-28T15:20:55;3.80;;;1.00;;
74660;SDS011;63191;39.566;2.654;2023-01-28T15:23:41;4.90;;;1.40;;
74660;SDS011;63191;39.566;2.654;2023-01-28T15:26:21;6.20;;;1.60;;
74660;SDS011;63191;39.566;2.654;2023-01-28T15:28:56;5.30;;;1.50;;
74660;SDS011;63191;39.566;2.654;2023-01-28T15:31:29;4.80;;;1.30;;
74660;SDS011;63191;39.566;2.654;2023-01-28T15:36:30;3.50;;;1.10;;
74660;SDS011;63191;39.566;2.654;2023-01-28T15:38:56;5.50;;;1.30;;
74660;SDS011;63191;39.566;2.654;2023-01-28T15:41:27;5.80;;;1.40;;
74660;SDS011;63191;39.566;2.654;2023-01-28T15:43:55;4.60;;;1.00;;
74660;SDS011;63191;39.566;2.654;2023-01-28T15:46:21;6.10;;;1.30;;
74660;SDS011;63191;39.566;2.654;2023-01-28T15:49:12;6.50;;;1.30;;
74660;SDS011;63191;39.566;2.654;2023-01-28T15:51:39;7.20;;;1.70;;
74660;SDS011;63191;39.566;2.654;2023-01-28T15:54:08;8.00;;;1.30;;
74660;SDS011;63191;39.566;2.654;2023-01-28T15:56:35;6.10;;;0.80;;
74660;SDS011;63191;39.566;2.654;2023-01-28T15:59:28;3.40;;;0.80;;
74660;SDS011;63191;39.566;2.654;2023-01-28T16:02:17;5.40;;;1.50;;
74660;SDS011;63191;39.566;2.654;2023-01-28T16:07:27;6.50;;;1.70;;
74660;SDS011;63191;39.566;2.654;2023-01-28T16:09:59;6.20;;;1.60;;
74660;SDS011;63191;39.566;2.654;2023-01-28T16:12:26;6.30;;;1.80;;
74660;SDS011;63191;39.566;2.654;2023-01-28T16:14:56;5.30;;;1.70;;
74660;SDS011;63191;39.566;2.654;2023-01-28T16:17:28;5.00;;;1.10;;
74660;SDS011;63191;39.566;2.654;2023-01-28T16:20:07;5.40;;;1.40;;
74660;SDS011;63191;39.566;2.654;2023-01-28T16:22:41;5.70;;;1.70;;
74660;SDS011;63191;39.566;2.654;2023-01-28T16:27:46;5.10;;;1.40;;
74660;SDS011;63191;39.566;2.654;2023-01-28T16:30:15;6.20;;;2.00;;
74660;SDS011;63191;39.566;2.654;2023-01-28T16:32:42;6.60;;;1.80;;
74660;SDS011;63191;39.566;2.654;2023-01-28T16:35:20;5.60;;;1.50;;
74660;SDS011;63191;39.566;2.654;2023-01-28T16:37:49;3.40;;;0.90;;
74660;SDS011;63191;39.566;2.654;2023-01-28T16:40:17;6.70;;;1.50;;
74660;SDS011;63191;39.566;2.654;2023-01-28T16:42:44;4.10;;;1.00;;
74660;SDS011;63191;39.566;2.654;2023-01-28T16:45:16;3.50;;;0.80;;
74660;SDS011;63191;39.566;2.654;2023-01-28T16:47:47;5.90;;;1.30;;
74660;SDS011;63191;39.566;2.654;2023-01-28T16:50:14;4.60;;;1.10;;
74660;SDS011;63191;39.566;2.654;2023-01-28T16:52:44;4.90;;;1.30;;
74660;SDS011;63191;39.566;2.654;2023-01-28T16:55:13;5.80;;;1.40;;
74660;SDS011;63191;39.566;2.654;2023-01-28T16:57:41;5.20;;;1.10;;
74660;SDS011;63191;39.566;2.654;2023-01-28T17:00:15;3.50;;;0.80;;
74660;SDS011;63191;39.566;2.654;2023-01-28T17:02:59;4.60;;;0.70;;
74660;SDS011;63191;39.566;2.654;2023-01-28T17:05:24;5.30;;;1.10;;
74660;SDS011;63191;39.566;2.654;2023-01-28T17:07:51;5.60;;;1.50;;
74660;SDS011;63191;39.566;2.654;2023-01-28T17:10:19;6.10;;;1.40;;
74660;SDS011;63191;39.566;2.654;2023-01-28T17:12:47;5.40;;;1.80;;
74660;SDS011;63191;39.566;2.654;2023-01-28T17:15:13;4.50;;;1.00;;
74660;SDS011;63191;39.566;2.654;2023-01-28T17:17:39;6.50;;;1.60;;
74660;SDS011;63191;39.566;2.654;2023-01-28T17:20:06;4.80;;;1.10;;
74660;SDS011;63191;39.566;2.654;2023-01-28T17:22:33;4.60;;;1.20;;
74660;SDS011;63191;39.566;2.654;2023-01-28T17:24:58;6.10;;;1.30;;
74660;SDS011;63191;39.566;2.654;2023-01-28T17:27:24;4.80;;;1.20;;
74660;SDS011;63191;39.566;2.654;2023-01-28T17:29:51;6.60;;;1.70;;
74660;SDS011;63191;39.566;2.654;2023-01-28T17:32:17;6.00;;;1.30;;
74660;SDS011;63191;39.566;2.654;2023-01-28T17:34:43;8.40;;;2.10;;
74660;SDS011;63191;39.566;2.654;2023-01-28T17:37:08;7.20;;;2.30;;
74660;SDS011;63191;39.566;2.654;2023-01-28T17:39:34;6.10;;;1.80;;